Columbus Municipal Airport Columbus US
ICAO: KBAK
IATA: CLU
Category: Medium
Scheduled Services: No

Elevation: 656 ft
TransAlt. 18000 ft.

Airport Communications:
INDIANAPOLIS APP/DEP:134.85
AWOS 3:119.75
CLNC DEL:121.6
CTAF:118.6
GND:121.6
TERRE HAUTE RDO:112
TWR:118.6
UNICOM:122.95

KBAK Zoom In..

If you have problems with the map follow the link
https://www.worldairports.se/pages/airport.php?
ICAO=KBAK

Runways:

(A) RW 05 length 6401 ft width 150 ft
---- / hdg 48

(B) RW 14 length 5001 ft width 100 ft
---- / hdg 138

(C) RW 23 length 6401 ft width 150 ft
ILS 110.70 / hdg 228

(D) RW 32 length 5001 ft width 100 ft
---- / hdg 318

Location; KBAK
Day. 16 / Time. 02.45 Zulu
* Altimeter: 30.02
* Temperature: -01° c. -30.2°f.
* Wind from: 250° Speed 11 kn.
Dewpoint: -02° c.
Visibility: 7 Statute Miles.
Clouds: Overcast 800 ft.

KBAK 160245Z 25011KT 7SM OVC008 M01/M02 A3002 RMK LAST


Wind From 250°
Speed 11 kn.

 
 
jpsmedia.com for Web Design worldairports.se 2018   terms of use